sensor_id;sensor_type;location;lat;lon;timestamp;temperature;humidity
41168;DHT22;26906;45.658;9.272;2023-04-28T05:34:34;14.40;99.90
41168;DHT22;26906;45.658;9.272;2023-04-28T05:37:01;14.50;99.90
41168;DHT22;26906;45.658;9.272;2023-04-28T05:39:28;14.50;99.90
41168;DHT22;26906;45.658;9.272;2023-04-28T05:41:57;14.60;99.90
41168;DHT22;26906;45.658;9.272;2023-04-28T05:44:23;14.60;99.90
41168;DHT22;26906;45.658;9.272;2023-04-28T05:46:49;14.70;99.90
41168;DHT22;26906;45.658;9.272;2023-04-28T05:49:20;14.70;99.90
41168;DHT22;26906;45.658;9.272;2023-04-28T05:51:46;14.80;99.90
41168;DHT22;26906;45.658;9.272;2023-04-28T05:54:12;14.80;99.90
41168;DHT22;26906;45.658;9.272;2023-04-28T05:56:44;14.80;99.90
41168;DHT22;26906;45.658;9.272;2023-04-28T05:59:11;15.00;99.90
41168;DHT22;26906;45.658;9.272;2023-04-28T06:01:37;15.10;99.90
41168;DHT22;26906;45.658;9.272;2023-04-28T06:04:03;15.30;99.90
41168;DHT22;26906;45.658;9.272;2023-04-28T06:06:29;15.30;99.90
41168;DHT22;26906;45.658;9.272;2023-04-28T06:08:57;15.40;99.90
41168;DHT22;26906;45.658;9.272;2023-04-28T06:11:24;15.40;99.90
41168;DHT22;26906;45.658;9.272;2023-04-28T06:13:50;15.40;99.90
41168;DHT22;26906;45.658;9.272;2023-04-28T06:16:17;15.40;99.90
41168;DHT22;26906;45.658;9.272;2023-04-28T06:18:44;15.40;99.90
41168;DHT22;26906;45.658;9.272;2023-04-28T06:21:10;15.50;99.90
41168;DHT22;26906;45.658;9.272;2023-04-28T06:23:36;15.50;99.90
41168;DHT22;26906;45.658;9.272;2023-04-28T06:26:03;15.60;99.90
41168;DHT22;26906;45.658;9.272;2023-04-28T06:28:29;15.70;99.90
41168;DHT22;26906;45.658;9.272;2023-04-28T06:30:55;15.80;99.90
41168;DHT22;26906;45.658;9.272;2023-04-28T06:33:21;15.80;99.90
41168;DHT22;26906;45.658;9.272;2023-04-28T06:35:50;15.90;99.90
41168;DHT22;26906;45.658;9.272;2023-04-28T06:38:16;16.00;99.90
41168;DHT22;26906;45.658;9.272;2023-04-28T06:40:42;16.20;99.90
41168;DHT22;26906;45.658;9.272;2023-04-28T06:43:10;16.30;99.90
41168;DHT22;26906;45.658;9.272;2023-04-28T06:45:55;16.40;99.90
41168;DHT22;26906;45.658;9.272;2023-04-28T06:48:25;16.60;99.90
41168;DHT22;26906;45.658;9.272;2023-04-28T06:50:51;16.60;99.90
41168;DHT22;26906;45.658;9.272;2023-04-28T06:53:17;16.60;99.90
41168;DHT22;26906;45.658;9.272;2023-04-28T06:55:42;16.60;99.90
41168;DHT22;26906;45.658;9.272;2023-04-28T06:58:08;16.50;99.90
41168;DHT22;26906;45.658;9.272;2023-04-28T07:00:34;16.60;99.90
41168;DHT22;26906;45.658;9.272;2023-04-28T07:03:00;16.70;99.90
41168;DHT22;26906;45.658;9.272;2023-04-28T07:05:26;16.80;99.90
41168;DHT22;26906;45.658;9.272;2023-04-28T07:07:54;17.00;99.90
41168;DHT22;26906;45.658;9.272;2023-04-28T07:10:19;17.30;99.90
41168;DHT22;26906;45.658;9.272;2023-04-28T07:12:45;17.70;99.90
41168;DHT22;26906;45.658;9.272;2023-04-28T07:15:11;18.00;99.90
41168;DHT22;26906;45.658;9.272;2023-04-28T07:17:37;18.30;99.90
41168;DHT22;26906;45.658;9.272;2023-04-28T07:20:04;18.60;99.90
41168;DHT22;26906;45.658;9.272;2023-04-28T07:22:30;18.80;99.90
41168;DHT22;26906;45.658;9.272;2023-04-28T07:24:55;18.80;99.90
41168;DHT22;26906;45.658;9.272;2023-04-28T07:27:22;18.90;99.90
41168;DHT22;26906;45.658;9.272;2023-04-28T07:29:48;19.20;99.90
41168;DHT22;26906;45.658;9.272;2023-04-28T07:32:13;19.20;99.90
41168;DHT22;26906;45.658;9.272;2023-04-28T07:34:39;19.30;99.90
41168;DHT22;26906;45.658;9.272;2023-04-28T07:37:05;19.30;99.90
41168;DHT22;26906;45.658;9.272;2023-04-28T07:39:31;19.30;99.90
41168;DHT22;26906;45.658;9.272;2023-04-28T07:41:58;19.20;99.90
41168;DHT22;26906;45.658;9.272;2023-04-28T07:44:24;19.20;99.90
41168;DHT22;26906;45.658;9.272;2023-04-28T07:46:50;19.10;99.90
41168;DHT22;26906;45.658;9.272;2023-04-28T07:49:16;19.10;99.90
41168;DHT22;26906;45.658;9.272;2023-04-28T07:51:41;19.00;99.90
41168;DHT22;26906;45.658;9.272;2023-04-28T07:54:07;19.10;99.90
41168;DHT22;26906;45.658;9.272;2023-04-28T07:56:33;19.10;99.90
41168;DHT22;26906;45.658;9.272;2023-04-28T07:59:00;19.10;99.90
41168;DHT22;26906;45.658;9.272;2023-04-28T08:01:26;19.30;99.90
41168;DHT22;26906;45.658;9.272;2023-04-28T08:03:52;19.40;99.90
41168;DHT22;26906;45.658;9.272;2023-04-28T08:06:18;19.80;99.90
41168;DHT22;26906;45.658;9.272;2023-04-28T08:08:44;20.10;99.90
41168;DHT22;26906;45.658;9.272;2023-04-28T08:11:10;20.30;99.90
41168;DHT22;26906;45.658;9.272;2023-04-28T08:13:35;20.20;99.90
41168;DHT22;26906;45.658;9.272;2023-04-28T08:16:01;20.30;99.90
41168;DHT22;26906;45.658;9.272;2023-04-28T08:18:27;20.40;99.90
41168;DHT22;26906;45.658;9.272;2023-04-28T08:20:53;20.50;99.90
41168;DHT22;26906;45.658;9.272;2023-04-28T08:23:20;20.30;99.90
41168;DHT22;26906;45.658;9.272;2023-04-28T08:25:46;20.20;99.90
41168;DHT22;26906;45.658;9.272;2023-04-28T08:28:12;20.30;99.90
41168;DHT22;26906;45.658;9.272;2023-04-28T08:30:38;20.50;99.90
41168;DHT22;26906;45.658;9.272;2023-04-28T08:33:04;20.60;99.90
41168;DHT22;26906;45.658;9.272;2023-04-28T08:35:29;20.60;99.90
41168;DHT22;26906;45.658;9.272;2023-04-28T08:37:55;20.80;99.90
41168;DHT22;26906;45.658;9.272;2023-04-28T08:40:21;20.90;99.90
41168;DHT22;26906;45.658;9.272;2023-04-28T08:42:49;21.10;99.90
41168;DHT22;26906;45.658;9.272;2023-04-28T08:45:15;21.40;99.90
41168;DHT22;26906;45.658;9.272;2023-04-28T08:47:41;21.50;99.90
41168;DHT22;26906;45.658;9.272;2023-04-28T08:50:11;21.50;99.90
41168;DHT22;26906;45.658;9.272;2023-04-28T08:52:38;21.50;99.90
41168;DHT22;26906;45.658;9.272;2023-04-28T08:55:11;21.70;99.90
41168;DHT22;26906;45.658;9.272;2023-04-28T08:57:48;21.90;99.90
41168;DHT22;26906;45.658;9.272;2023-04-28T09:00:16;22.10;99.90
41168;DHT22;26906;45.658;9.272;2023-04-28T09:02:42;22.40;99.90
41168;DHT22;26906;45.658;9.272;2023-04-28T09:05:09;22.70;99.90
41168;DHT22;26906;45.658;9.272;2023-04-28T09:07:34;22.50;99.90
41168;DHT22;26906;45.658;9.272;2023-04-28T09:10:20;22.30;99.90
41168;DHT22;26906;45.658;9.272;2023-04-28T09:12:47;22.40;99.90
41168;DHT22;26906;45.658;9.272;2023-04-28T09:15:46;22.40;99.90
41168;DHT22;26906;45.658;9.272;2023-04-28T09:18:13;22.70;99.90
41168;DHT22;26906;45.658;9.272;2023-04-28T09:20:39;23.10;99.90
41168;DHT22;26906;45.658;9.272;2023-04-28T09:23:16;23.10;99.90
41168;DHT22;26906;45.658;9.272;2023-04-28T09:28:24;23.20;98.90
41168;DHT22;26906;45.658;9.272;2023-04-28T09:30:50;23.40;98.50
41168;DHT22;26906;45.658;9.272;2023-04-28T09:33:16;23.50;98.20
41168;DHT22;26906;45.658;9.272;2023-04-28T09:35:42;23.60;98.10
41168;DHT22;26906;45.658;9.272;2023-04-28T09:38:10;23.20;97.00
41168;DHT22;26906;45.658;9.272;2023-04-28T09:40:58;23.30;97.30
41168;DHT22;26906;45.658;9.272;2023-04-28T09:43:34;23.40;96.40
41168;DHT22;26906;45.658;9.272;2023-04-28T09:46:02;23.50;96.40
41168;DHT22;26906;45.658;9.272;2023-04-28T09:48:32;23.50;94.70
41168;DHT22;26906;45.658;9.272;2023-04-28T09:51:00;23.30;95.40
41168;DHT22;26906;45.658;9.272;2023-04-28T09:53:26;23.40;96.30
41168;DHT22;26906;45.658;9.272;2023-04-28T09:55:54;23.50;95.10
41168;DHT22;26906;45.658;9.272;2023-04-28T09:58:21;23.80;94.80
41168;DHT22;26906;45.658;9.272;2023-04-28T10:00:55;23.90;94.40
41168;DHT22;26906;45.658;9.272;2023-04-28T10:03:24;23.70;94.00
41168;DHT22;26906;45.658;9.272;2023-04-28T10:05:50;23.80;92.80
41168;DHT22;26906;45.658;9.272;2023-04-28T10:08:19;23.90;93.30
41168;DHT22;26906;45.658;9.272;2023-04-28T10:10:50;23.90;93.20
41168;DHT22;26906;45.658;9.272;2023-04-28T10:13:20;23.90;93.40
41168;DHT22;26906;45.658;9.272;2023-04-28T10:15:47;23.90;94.00
41168;DHT22;26906;45.658;9.272;2023-04-28T10:18:13;24.30;93.70
41168;DHT22;26906;45.658;9.272;2023-04-28T10:20:48;24.60;93.30
41168;DHT22;26906;45.658;9.272;2023-04-28T10:26:11;24.90;91.80
41168;DHT22;26906;45.658;9.272;2023-04-28T10:28:45;24.80;91.80
41168;DHT22;26906;45.658;9.272;2023-04-28T10:31:13;24.90;92.30
41168;DHT22;26906;45.658;9.272;2023-04-28T10:33:40;25.10;91.90
41168;DHT22;26906;45.658;9.272;2023-04-28T10:36:07;25.10;91.80
41168;DHT22;26906;45.658;9.272;2023-04-28T10:38:34;25.00;91.20
41168;DHT22;26906;45.658;9.272;2023-04-28T10:41:00;24.70;90.70
41168;DHT22;26906;45.658;9.272;2023-04-28T10:46:03;24.50;91.00
41168;DHT22;26906;45.658;9.272;2023-04-28T10:56:19;25.20;92.30
41168;DHT22;26906;45.658;9.272;2023-04-28T10:58:47;25.50;92.80
41168;DHT22;26906;45.658;9.272;2023-04-28T11:06:21;25.10;91.00
41168;DHT22;26906;45.658;9.272;2023-04-28T11:08:57;25.50;91.30
41168;DHT22;26906;45.658;9.272;2023-04-28T11:11:25;25.20;91.00
41168;DHT22;26906;45.658;9.272;2023-04-28T11:13:53;25.10;91.00
41168;DHT22;26906;45.658;9.272;2023-04-28T11:16:23;25.30;91.90
41168;DHT22;26906;45.658;9.272;2023-04-28T11:18:51;25.70;92.90
41168;DHT22;26906;45.658;9.272;2023-04-28T11:21:20;25.80;92.40
41168;DHT22;26906;45.658;9.272;2023-04-28T11:23:46;25.70;92.20
41168;DHT22;26906;45.658;9.272;2023-04-28T11:26:14;25.70;91.60
41168;DHT22;26906;45.658;9.272;2023-04-28T11:28:50;25.90;91.10
41168;DHT22;26906;45.658;9.272;2023-04-28T11:31:17;25.90;92.10
41168;DHT22;26906;45.658;9.272;2023-04-28T11:36:37;26.40;92.20
41168;DHT22;26906;45.658;9.272;2023-04-28T11:39:13;26.30;92.40
41168;DHT22;26906;45.658;9.272;2023-04-28T11:41:40;26.10;92.00
41168;DHT22;26906;45.658;9.272;2023-04-28T11:49:41;25.70;91.60
41168;DHT22;26906;45.658;9.272;2023-04-28T11:52:08;25.90;92.70
41168;DHT22;26906;45.658;9.272;2023-04-28T11:54:35;26.00;92.10
41168;DHT22;26906;45.658;9.272;2023-04-28T11:57:02;26.20;91.90
41168;DHT22;26906;45.658;9.272;2023-04-28T11:59:33;26.40;92.30
41168;DHT22;26906;45.658;9.272;2023-04-28T12:02:06;26.40;91.40
41168;DHT22;26906;45.658;9.272;2023-04-28T12:04:38;26.40;91.20
41168;DHT22;26906;45.658;9.272;2023-04-28T12:09:32;26.10;91.60
41168;DHT22;26906;45.658;9.272;2023-04-28T12:12:06;26.00;91.10
41168;DHT22;26906;45.658;9.272;2023-04-28T12:14:52;26.00;91.50
41168;DHT22;26906;45.658;9.272;2023-04-28T12:17:25;25.90;91.30
41168;DHT22;26906;45.658;9.272;2023-04-28T12:19:52;25.60;91.40
41168;DHT22;26906;45.658;9.272;2023-04-28T12:22:17;25.40;91.80
41168;DHT22;26906;45.658;9.272;2023-04-28T12:24:43;25.60;92.30
41168;DHT22;26906;45.658;9.272;2023-04-28T12:27:28;25.90;93.00
41168;DHT22;26906;45.658;9.272;2023-04-28T12:29:54;26.50;92.80
41168;DHT22;26906;45.658;9.272;2023-04-28T12:32:42;26.40;91.30
41168;DHT22;26906;45.658;9.272;2023-04-28T12:35:08;26.00;92.20
41168;DHT22;26906;45.658;9.272;2023-04-28T12:37:33;25.50;92.30
41168;DHT22;26906;45.658;9.272;2023-04-28T12:39:59;25.80;92.20
41168;DHT22;26906;45.658;9.272;2023-04-28T12:42:26;25.90;91.60
41168;DHT22;26906;45.658;9.272;2023-04-28T12:44:53;26.20;91.50
41168;DHT22;26906;45.658;9.272;2023-04-28T12:47:19;26.30;91.50
41168;DHT22;26906;45.658;9.272;2023-04-28T12:49:45;26.50;91.80
41168;DHT22;26906;45.658;9.272;2023-04-28T12:52:12;26.50;91.60
41168;DHT22;26906;45.658;9.272;2023-04-28T12:54:38;26.60;91.90
41168;DHT22;26906;45.658;9.272;2023-04-28T12:57:11;26.80;91.40
41168;DHT22;26906;45.658;9.272;2023-04-28T12:59:38;26.70;91.40
41168;DHT22;26906;45.658;9.272;2023-04-28T13:02:04;26.70;90.80
41168;DHT22;26906;45.658;9.272;2023-04-28T13:04:30;26.70;91.50
41168;DHT22;26906;45.658;9.272;2023-04-28T13:06:59;26.70;90.90
41168;DHT22;26906;45.658;9.272;2023-04-28T13:09:25;26.80;91.30
41168;DHT22;26906;45.658;9.272;2023-04-28T13:11:51;26.80;91.40
41168;DHT22;26906;45.658;9.272;2023-04-28T13:14:20;26.50;91.30
41168;DHT22;26906;45.658;9.272;2023-04-28T13:16:46;26.50;91.80
41168;DHT22;26906;45.658;9.272;2023-04-28T13:19:12;26.30;91.90
41168;DHT22;26906;45.658;9.272;2023-04-28T13:21:42;26.40;91.10
41168;DHT22;26906;45.658;9.272;2023-04-28T13:24:09;26.50;91.60
41168;DHT22;26906;45.658;9.272;2023-04-28T13:26:35;26.50;91.70
41168;DHT22;26906;45.658;9.272;2023-04-28T13:29:02;26.70;91.90
41168;DHT22;26906;45.658;9.272;2023-04-28T13:31:29;26.70;91.40
41168;DHT22;26906;45.658;9.272;2023-04-28T13:33:55;26.80;91.80
41168;DHT22;26906;45.658;9.272;2023-04-28T13:36:21;27.10;92.30
41168;DHT22;26906;45.658;9.272;2023-04-28T13:38:48;27.40;91.80
41168;DHT22;26906;45.658;9.272;2023-04-28T13:41:16;27.50;91.50
41168;DHT22;26906;45.658;9.272;2023-04-28T13:43:43;27.50;90.90
41168;DHT22;26906;45.658;9.272;2023-04-28T13:46:09;27.40;90.90
41168;DHT22;26906;45.658;9.272;2023-04-28T13:48:35;27.20;90.70
41168;DHT22;26906;45.658;9.272;2023-04-28T13:51:02;27.30;90.70
41168;DHT22;26906;45.658;9.272;2023-04-28T13:53:28;27.10;90.20
41168;DHT22;26906;45.658;9.272;2023-04-28T13:55:54;27.10;90.70
41168;DHT22;26906;45.658;9.272;2023-04-28T13:58:26;27.00;90.50
41168;DHT22;26906;45.658;9.272;2023-04-28T14:00:52;26.80;90.30
41168;DHT22;26906;45.658;9.272;2023-04-28T14:03:19;26.70;91.20
41168;DHT22;26906;45.658;9.272;2023-04-28T14:05:52;26.80;90.50
41168;DHT22;26906;45.658;9.272;2023-04-28T14:08:18;27.00;90.90
41168;DHT22;26906;45.658;9.272;2023-04-28T14:10:45;27.00;90.80
41168;DHT22;26906;45.658;9.272;2023-04-28T14:13:11;26.70;90.50
41168;DHT22;26906;45.658;9.272;2023-04-28T14:15:37;26.50;90.60
41168;DHT22;26906;45.658;9.272;2023-04-28T14:18:04;26.50;90.80
41168;DHT22;26906;45.658;9.272;2023-04-28T14:20:31;26.70;91.30
41168;DHT22;26906;45.658;9.272;2023-04-28T14:22:57;27.00;91.50
41168;DHT22;26906;45.658;9.272;2023-04-28T14:25:22;27.10;90.00
41168;DHT22;26906;45.658;9.272;2023-04-28T14:27:49;27.00;90.40
41168;DHT22;26906;45.658;9.272;2023-04-28T14:30:17;27.10;90.90
41168;DHT22;26906;45.658;9.272;2023-04-28T14:32:43;27.10;91.30
41168;DHT22;26906;45.658;9.272;2023-04-28T14:35:10;27.10;90.70
41168;DHT22;26906;45.658;9.272;2023-04-28T14:37:38;27.00;90.50
41168;DHT22;26906;45.658;9.272;2023-04-28T14:40:04;27.10;90.90
41168;DHT22;26906;45.658;9.272;2023-04-28T14:42:32;27.00;90.00
41168;DHT22;26906;45.658;9.272;2023-04-28T14:45:01;26.90;90.40
41168;DHT22;26906;45.658;9.272;2023-04-28T14:47:28;27.10;90.10
41168;DHT22;26906;45.658;9.272;2023-04-28T14:49:54;27.00;90.20
41168;DHT22;26906;45.658;9.272;2023-04-28T14:52:21;27.20;90.50
41168;DHT22;26906;45.658;9.272;2023-04-28T14:54:50;27.20;90.10
41168;DHT22;26906;45.658;9.272;2023-04-28T14:57:16;27.20;90.00
41168;DHT22;26906;45.658;9.272;2023-04-28T14:59:43;27.10;90.30
41168;DHT22;26906;45.658;9.272;2023-04-28T15:02:08;27.10;89.60
41168;DHT22;26906;45.658;9.272;2023-04-28T15:04:34;27.10;88.70
41168;DHT22;26906;45.658;9.272;2023-04-28T15:07:00;27.00;90.30
41168;DHT22;26906;45.658;9.272;2023-04-28T15:09:26;27.10;90.30
41168;DHT22;26906;45.658;9.272;2023-04-28T15:11:52;27.10;90.30
41168;DHT22;26906;45.658;9.272;2023-04-28T15:14:18;27.00;88.60
41168;DHT22;26906;45.658;9.272;2023-04-28T15:16:44;27.00;90.20
41168;DHT22;26906;45.658;9.272;2023-04-28T15:19:11;26.80;89.60
41168;DHT22;26906;45.658;9.272;2023-04-28T15:21:38;26.70;89.00
41168;DHT22;26906;45.658;9.272;2023-04-28T15:24:04;26.60;90.00
41168;DHT22;26906;45.658;9.272;2023-04-28T15:26:31;26.50;90.80
41168;DHT22;26906;45.658;9.272;2023-04-28T15:28:57;26.40;90.90
41168;DHT22;26906;45.658;9.272;2023-04-28T15:31:23;26.20;90.80
41168;DHT22;26906;45.658;9.272;2023-04-28T15:33:51;26.20;91.00
41168;DHT22;26906;45.658;9.272;2023-04-28T15:36:17;26.30;91.30
41168;DHT22;26906;45.658;9.272;2023-04-28T15:38:46;26.10;91.00
41168;DHT22;26906;45.658;9.272;2023-04-28T15:41:12;26.10;91.80
41168;DHT22;26906;45.658;9.272;2023-04-28T15:43:39;26.10;91.20
41168;DHT22;26906;45.658;9.272;2023-04-28T15:46:05;26.10;90.60
41168;DHT22;26906;45.658;9.272;2023-04-28T15:48:38;26.20;91.50
41168;DHT22;26906;45.658;9.272;2023-04-28T15:51:04;26.10;90.80
41168;DHT22;26906;45.658;9.272;2023-04-28T15:53:30;26.00;91.30
41168;DHT22;26906;45.658;9.272;2023-04-28T15:55:57;26.00;91.40
41168;DHT22;26906;45.658;9.272;2023-04-28T15:58:22;26.10;91.10
41168;DHT22;26906;45.658;9.272;2023-04-28T16:00:48;26.10;91.40
41168;DHT22;26906;45.658;9.272;2023-04-28T16:03:14;26.20;91.70
41168;DHT22;26906;45.658;9.272;2023-04-28T16:05:40;26.20;92.10
41168;DHT22;26906;45.658;9.272;2023-04-28T16:08:05;26.20;92.10
41168;DHT22;26906;45.658;9.272;2023-04-28T16:10:31;26.00;91.00
41168;DHT22;26906;45.658;9.272;2023-04-28T16:12:57;25.90;91.40
41168;DHT22;26906;45.658;9.272;2023-04-28T16:15:23;26.00;91.70
41168;DHT22;26906;45.658;9.272;2023-04-28T16:17:50;25.90;91.90
41168;DHT22;26906;45.658;9.272;2023-04-28T16:20:17;25.90;91.70
41168;DHT22;26906;45.658;9.272;2023-04-28T16:22:43;25.90;91.60
41168;DHT22;26906;45.658;9.272;2023-04-28T16:25:09;25.80;91.90
41168;DHT22;26906;45.658;9.272;2023-04-28T16:27:35;25.80;91.00
41168;DHT22;26906;45.658;9.272;2023-04-28T16:30:01;25.60;91.50
41168;DHT22;26906;45.658;9.272;2023-04-28T16:32:27;25.50;92.60
41168;DHT22;26906;45.658;9.272;2023-04-28T16:34:56;25.40;92.30
41168;DHT22;26906;45.658;9.272;2023-04-28T16:37:22;25.50;92.30
41168;DHT22;26906;45.658;9.272;2023-04-28T16:39:48;25.50;92.40
41168;DHT22;26906;45.658;9.272;2023-04-28T16:42:14;25.40;91.30
41168;DHT22;26906;45.658;9.272;2023-04-28T16:44:40;25.40;91.60
41168;DHT22;26906;45.658;9.272;2023-04-28T16:47:06;25.30;92.20
41168;DHT22;26906;45.658;9.272;2023-04-28T16:49:34;25.30;92.80
41168;DHT22;26906;45.658;9.272;2023-04-28T16:52:03;25.30;92.70
41168;DHT22;26906;45.658;9.272;2023-04-28T16:54:30;25.20;92.80
41168;DHT22;26906;45.658;9.272;2023-04-28T16:56:58;25.20;92.60
41168;DHT22;26906;45.658;9.272;2023-04-28T16:59:24;25.20;92.30
41168;DHT22;26906;45.658;9.272;2023-04-28T17:01:56;25.10;92.70
41168;DHT22;26906;45.658;9.272;2023-04-28T17:04:23;25.00;92.50
41168;DHT22;26906;45.658;9.272;2023-04-28T17:06:49;25.00;92.90
41168;DHT22;26906;45.658;9.272;2023-04-28T17:09:16;24.90;92.90
41168;DHT22;26906;45.658;9.272;2023-04-28T17:11:42;24.90;93.00
41168;DHT22;26906;45.658;9.272;2023-04-28T17:14:07;24.90;93.40
41168;DHT22;26906;45.658;9.272;2023-04-28T17:16:34;24.80;93.00
41168;DHT22;26906;45.658;9.272;2023-04-28T17:19:00;24.70;92.90
41168;DHT22;26906;45.658;9.272;2023-04-28T17:21:27;24.70;93.40
41168;DHT22;26906;45.658;9.272;2023-04-28T17:24:01;24.60;93.60
41168;DHT22;26906;45.658;9.272;2023-04-28T17:26:28;24.40;93.40
41168;DHT22;26906;45.658;9.272;2023-04-28T17:28:55;24.40;93.50
41168;DHT22;26906;45.658;9.272;2023-04-28T17:31:23;24.30;93.20
41168;DHT22;26906;45.658;9.272;2023-04-28T17:33:49;24.20;93.40
41168;DHT22;26906;45.658;9.272;2023-04-28T17:36:17;24.10;93.40
41168;DHT22;26906;45.658;9.272;2023-04-28T17:38:42;24.00;93.70
41168;DHT22;26906;45.658;9.272;2023-04-28T17:41:08;23.90;93.90
41168;DHT22;26906;45.658;9.272;2023-04-28T17:43:34;23.80;94.10
41168;DHT22;26906;45.658;9.272;2023-04-28T17:46:00;23.80;94.10
41168;DHT22;26906;45.658;9.272;2023-04-28T17:48:26;23.70;94.30
41168;DHT22;26906;45.658;9.272;2023-04-28T17:50:52;23.60;94.30
41168;DHT22;26906;45.658;9.272;2023-04-28T17:53:20;23.60;94.50
41168;DHT22;26906;45.658;9.272;2023-04-28T17:55:48;23.50;94.50
41168;DHT22;26906;45.658;9.272;2023-04-28T17:58:14;23.40;94.60
41168;DHT22;26906;45.658;9.272;2023-04-28T18:00:41;23.40;94.70
41168;DHT22;26906;45.658;9.272;2023-04-28T18:03:07;23.30;94.70
41168;DHT22;26906;45.658;9.272;2023-04-28T18:05:32;23.20;94.70
41168;DHT22;26906;45.658;9.272;2023-04-28T18:08:00;23.20;94.90
41168;DHT22;26906;45.658;9.272;2023-04-28T18:10:28;23.00;95.10
41168;DHT22;26906;45.658;9.272;2023-04-28T18:12:55;22.90;95.30
41168;DHT22;26906;45.658;9.272;2023-04-28T18:15:26;22.80;95.00
41168;DHT22;26906;45.658;9.272;2023-04-28T18:17:54;22.80;95.20
41168;DHT22;26906;45.658;9.272;2023-04-28T18:20:21;22.70;95.70
41168;DHT22;26906;45.658;9.272;2023-04-28T18:22:47;22.60;95.40
41168;DHT22;26906;45.658;9.272;2023-04-28T18:25:13;22.50;95.50
41168;DHT22;26906;45.658;9.272;2023-04-28T18:27:41;22.40;95.50
41168;DHT22;26906;45.658;9.272;2023-04-28T18:30:07;22.40;96.00
41168;DHT22;26906;45.658;9.272;2023-04-28T18:32:33;22.30;96.20
41168;DHT22;26906;45.658;9.272;2023-04-28T18:35:00;22.20;96.20
41168;DHT22;26906;45.658;9.272;2023-04-28T18:37:26;22.20;96.50
41168;DHT22;26906;45.658;9.272;2023-04-28T18:39:56;22.10;97.10
41168;DHT22;26906;45.658;9.272;2023-04-28T18:42:22;22.00;97.20
41168;DHT22;26906;45.658;9.272;2023-04-28T18:44:55;21.90;97.60
41168;DHT22;26906;45.658;9.272;2023-04-28T18:47:24;22.00;97.80
41168;DHT22;26906;45.658;9.272;2023-04-28T18:49:50;21.90;98.20
41168;DHT22;26906;45.658;9.272;2023-04-28T18:52:16;21.80;98.40
41168;DHT22;26906;45.658;9.272;2023-04-28T18:54:42;21.60;98.90
41168;DHT22;26906;45.658;9.272;2023-04-28T18:57:09;21.40;99.90
41168;DHT22;26906;45.658;9.272;2023-04-28T18:59:37;21.40;99.90
41168;DHT22;26906;45.658;9.272;2023-04-28T19:02:03;21.40;99.90
41168;DHT22;26906;45.658;9.272;2023-04-28T19:04:29;21.50;99.90
41168;DHT22;26906;45.658;9.272;2023-04-28T19:06:55;21.50;99.90
41168;DHT22;26906;45.658;9.272;2023-04-28T19:09:21;21.30;99.90
41168;DHT22;26906;45.658;9.272;2023-04-28T19:11:47;21.30;99.90
41168;DHT22;26906;45.658;9.272;2023-04-28T19:14:13;21.30;99.90
41168;DHT22;26906;45.658;9.272;2023-04-28T19:16:39;21.20;99.90
41168;DHT22;26906;45.658;9.272;2023-04-28T19:19:04;21.20;99.90
41168;DHT22;26906;45.658;9.272;2023-04-28T19:21:38;21.10;99.90
41168;DHT22;26906;45.658;9.272;2023-04-28T19:24:04;21.10;99.90
41168;DHT22;26906;45.658;9.272;2023-04-28T19:26:31;21.10;99.90
41168;DHT22;26906;45.658;9.272;2023-04-28T19:28:57;21.10;99.90
41168;DHT22;26906;45.658;9.272;2023-04-28T19:31:23;21.10;99.90
41168;DHT22;26906;45.658;9.272;2023-04-28T19:33:49;21.10;99.90
41168;DHT22;26906;45.658;9.272;2023-04-28T19:36:15;20.90;99.90
41168;DHT22;26906;45.658;9.272;2023-04-28T19:38:40;20.90;99.90
41168;DHT22;26906;45.658;9.272;2023-04-28T19:41:06;20.80;99.90
41168;DHT22;26906;45.658;9.272;2023-04-28T19:43:32;20.80;99.90
41168;DHT22;26906;45.658;9.272;2023-04-28T19:45:59;20.80;99.90
41168;DHT22;26906;45.658;9.272;2023-04-28T19:48:27;20.80;99.90
41168;DHT22;26906;45.658;9.272;2023-04-28T19:50:53;20.70;99.90
41168;DHT22;26906;45.658;9.272;2023-04-28T19:53:20;20.70;99.90
41168;DHT22;26906;45.658;9.272;2023-04-28T19:55:46;20.60;99.90
41168;DHT22;26906;45.658;9.272;2023-04-28T19:58:12;20.60;99.90
41168;DHT22;26906;45.658;9.272;2023-04-28T20:00:38;20.50;99.90
41168;DHT22;26906;45.658;9.272;2023-04-28T20:03:04;20.40;99.90
41168;DHT22;26906;45.658;9.272;2023-04-28T20:05:29;20.30;99.90
41168;DHT22;26906;45.658;9.272;2023-04-28T20:07:55;20.20;99.90
41168;DHT22;26906;45.658;9.272;2023-04-28T20:10:22;20.20;99.90
41168;DHT22;26906;45.658;9.272;2023-04-28T20:12:48;20.20;99.90
41168;DHT22;26906;45.658;9.272;2023-04-28T20:15:13;20.10;99.90
41168;DHT22;26906;45.658;9.272;2023-04-28T20:17:41;20.20;99.90
